sensor_id;sensor_type;location;lat;lon;timestamp;pressure;altitude;pressure_sealevel;temperature;humidity
73016;BME280;61893;50.074;14.440;2022-10-16T00:01:30;98490.09;;;14.34;93.07
73016;BME280;61893;50.074;14.440;2022-10-16T00:03:57;98482.78;;;14.28;93.11
73016;BME280;61893;50.074;14.440;2022-10-16T00:06:24;98472.25;;;14.27;93.38
73016;BME280;61893;50.074;14.440;2022-10-16T00:08:51;98469.53;;;14.35;92.49
73016;BME280;61893;50.074;14.440;2022-10-16T00:11:26;98470.75;;;14.24;93.48
73016;BME280;61893;50.074;14.440;2022-10-16T00:13:57;98467.78;;;14.19;93.24
73016;BME280;61893;50.074;14.440;2022-10-16T00:16:33;98471.13;;;14.21;93.51
73016;BME280;61893;50.074;14.440;2022-10-16T00:18:59;98480.63;;;14.24;92.87
73016;BME280;61893;50.074;14.440;2022-10-16T00:21:28;98480.94;;;14.29;93.01
73016;BME280;61893;50.074;14.440;2022-10-16T00:24:01;98480.81;;;14.22;93.17
73016;BME280;61893;50.074;14.440;2022-10-16T00:26:30;98478.78;;;14.24;92.84
73016;BME280;61893;50.074;14.440;2022-10-16T00:28:57;98490.63;;;14.30;92.81
73016;BME280;61893;50.074;14.440;2022-10-16T00:31:23;98491.81;;;14.27;92.83
73016;BME280;61893;50.074;14.440;2022-10-16T00:34:10;98488.72;;;14.38;92.55
73016;BME280;61893;50.074;14.440;2022-10-16T00:36:35;98492.59;;;14.36;92.20
73016;BME280;61893;50.074;14.440;2022-10-16T00:39:02;98490.22;;;14.41;91.94
73016;BME280;61893;50.074;14.440;2022-10-16T00:41:29;98500.16;;;14.32;92.34
73016;BME280;61893;50.074;14.440;2022-10-16T00:43:58;98505.50;;;14.32;92.62
73016;BME280;61893;50.074;14.440;2022-10-16T00:46:38;98514.56;;;14.31;92.82
73016;BME280;61893;50.074;14.440;2022-10-16T00:49:20;98505.63;;;14.39;91.81
73016;BME280;61893;50.074;14.440;2022-10-16T00:51:50;98512.41;;;14.50;91.51
73016;BME280;61893;50.074;14.440;2022-10-16T00:54:27;98500.25;;;14.39;91.75
73016;BME280;61893;50.074;14.440;2022-10-16T00:56:56;98491.34;;;14.47;91.40
73016;BME280;61893;50.074;14.440;2022-10-16T00:59:39;98500.84;;;14.57;90.89
73016;BME280;61893;50.074;14.440;2022-10-16T01:02:14;98503.72;;;14.48;91.39
73016;BME280;61893;50.074;14.440;2022-10-16T01:04:47;98501.25;;;14.46;91.00
73016;BME280;61893;50.074;14.440;2022-10-16T01:07:16;98509.75;;;14.50;90.99
73016;BME280;61893;50.074;14.440;2022-10-16T01:10:17;98500.56;;;14.52;90.46
73016;BME280;61893;50.074;14.440;2022-10-16T01:12:50;98497.97;;;14.59;90.37
73016;BME280;61893;50.074;14.440;2022-10-16T01:15:24;98503.09;;;14.46;90.95
73016;BME280;61893;50.074;14.440;2022-10-16T01:18:02;98498.19;;;14.49;90.70
73016;BME280;61893;50.074;14.440;2022-10-16T01:20:45;98497.38;;;14.49;90.74
73016;BME280;61893;50.074;14.440;2022-10-16T01:31:11;98505.34;;;14.03;94.00
73016;BME280;61893;50.074;14.440;2022-10-16T01:33:44;98501.69;;;13.95;94.29
73016;BME280;61893;50.074;14.440;2022-10-16T01:36:16;98505.72;;;13.91;94.42
73016;BME280;61893;50.074;14.440;2022-10-16T01:38:48;98507.25;;;13.86;95.04
73016;BME280;61893;50.074;14.440;2022-10-16T01:41:44;98507.28;;;13.78;95.33
73016;BME280;61893;50.074;14.440;2022-10-16T01:44:32;98498.78;;;13.74;95.73
73016;BME280;61893;50.074;14.440;2022-10-16T01:47:12;98503.47;;;13.72;95.67
73016;BME280;61893;50.074;14.440;2022-10-16T01:49:53;98505.94;;;13.82;95.21
73016;BME280;61893;50.074;14.440;2022-10-16T01:52:23;98510.63;;;13.80;95.22
73016;BME280;61893;50.074;14.440;2022-10-16T01:54:54;98508.06;;;13.94;94.38
73016;BME280;61893;50.074;14.440;2022-10-16T01:57:24;98509.91;;;13.94;94.19
73016;BME280;61893;50.074;14.440;2022-10-16T01:59:56;98504.72;;;13.92;94.14
73016;BME280;61893;50.074;14.440;2022-10-16T02:02:26;98503.88;;;13.92;94.06
73016;BME280;61893;50.074;14.440;2022-10-16T02:07:52;98516.47;;;13.83;94.61
73016;BME280;61893;50.074;14.440;2022-10-16T02:10:18;98505.94;;;13.82;94.97
73016;BME280;61893;50.074;14.440;2022-10-16T02:12:50;98508.94;;;13.79;94.88
73016;BME280;61893;50.074;14.440;2022-10-16T02:15:19;98505.97;;;13.73;95.32
73016;BME280;61893;50.074;14.440;2022-10-16T02:17:45;98501.97;;;13.69;95.50
73016;BME280;61893;50.074;14.440;2022-10-16T02:20:10;98497.44;;;13.70;95.44
73016;BME280;61893;50.074;14.440;2022-10-16T02:22:45;98499.50;;;13.68;95.52
73016;BME280;61893;50.074;14.440;2022-10-16T02:25:19;98496.91;;;13.83;94.71
73016;BME280;61893;50.074;14.440;2022-10-16T02:30:28;98494.97;;;13.68;95.34
73016;BME280;61893;50.074;14.440;2022-10-16T02:32:57;98496.31;;;13.64;95.71
73016;BME280;61893;50.074;14.440;2022-10-16T02:35:26;98496.84;;;13.60;95.90
73016;BME280;61893;50.074;14.440;2022-10-16T02:37:54;98498.00;;;13.57;96.17
73016;BME280;61893;50.074;14.440;2022-10-16T02:40:21;98499.66;;;13.58;96.26
73016;BME280;61893;50.074;14.440;2022-10-16T02:42:54;98505.81;;;13.67;95.65
73016;BME280;61893;50.074;14.440;2022-10-16T02:45:20;98502.28;;;13.74;95.06
73016;BME280;61893;50.074;14.440;2022-10-16T02:47:46;98503.34;;;13.65;95.49
73016;BME280;61893;50.074;14.440;2022-10-16T02:50:12;98499.28;;;13.78;94.42
73016;BME280;61893;50.074;14.440;2022-10-16T02:52:39;98510.13;;;13.76;94.56
73016;BME280;61893;50.074;14.440;2022-10-16T02:55:04;98510.94;;;13.85;93.92
73016;BME280;61893;50.074;14.440;2022-10-16T02:57:30;98506.22;;;13.95;93.23
73016;BME280;61893;50.074;14.440;2022-10-16T02:59:57;98507.59;;;13.91;93.19
73016;BME280;61893;50.074;14.440;2022-10-16T03:02:24;98516.91;;;13.95;93.18
73016;BME280;61893;50.074;14.440;2022-10-16T03:04:49;98522.41;;;13.93;93.48
73016;BME280;61893;50.074;14.440;2022-10-16T03:07:16;98524.06;;;14.03;92.63
73016;BME280;61893;50.074;14.440;2022-10-16T03:09:41;98536.63;;;14.02;92.73
73016;BME280;61893;50.074;14.440;2022-10-16T03:12:14;98537.81;;;14.00;92.88
73016;BME280;61893;50.074;14.440;2022-10-16T03:14:46;98541.66;;;13.97;93.22
73016;BME280;61893;50.074;14.440;2022-10-16T03:17:15;98546.00;;;13.90;93.32
73016;BME280;61893;50.074;14.440;2022-10-16T03:19:42;98546.19;;;13.88;93.66
73016;BME280;61893;50.074;14.440;2022-10-16T03:22:08;98541.16;;;13.93;93.42
73016;BME280;61893;50.074;14.440;2022-10-16T03:24:33;98550.66;;;13.96;93.09
73016;BME280;61893;50.074;14.440;2022-10-16T03:26:59;98552.50;;;13.95;93.23
73016;BME280;61893;50.074;14.440;2022-10-16T03:29:25;98552.50;;;13.95;93.09
73016;BME280;61893;50.074;14.440;2022-10-16T03:31:51;98553.69;;;13.93;93.49
73016;BME280;61893;50.074;14.440;2022-10-16T03:34:17;98554.53;;;13.93;93.56
73016;BME280;61893;50.074;14.440;2022-10-16T03:36:43;98558.06;;;13.94;93.27
73016;BME280;61893;50.074;14.440;2022-10-16T03:39:08;98559.88;;;13.93;93.41
73016;BME280;61893;50.074;14.440;2022-10-16T03:41:34;98566.88;;;14.03;93.08
73016;BME280;61893;50.074;14.440;2022-10-16T03:44:00;98573.22;;;14.02;93.38
73016;BME280;61893;50.074;14.440;2022-10-16T03:46:43;98563.53;;;14.01;93.57
73016;BME280;61893;50.074;14.440;2022-10-16T03:49:30;98568.88;;;14.01;93.70
73016;BME280;61893;50.074;14.440;2022-10-16T03:51:58;98563.53;;;14.01;93.58
73016;BME280;61893;50.074;14.440;2022-10-16T03:54:24;98555.84;;;13.97;94.26
73016;BME280;61893;50.074;14.440;2022-10-16T03:56:50;98555.66;;;13.99;94.02
73016;BME280;61893;50.074;14.440;2022-10-16T03:59:16;98560.22;;;13.90;94.63
73016;BME280;61893;50.074;14.440;2022-10-16T04:02:05;98555.03;;;13.97;94.63
73016;BME280;61893;50.074;14.440;2022-10-16T04:04:30;98552.00;;;14.00;94.41
73016;BME280;61893;50.074;14.440;2022-10-16T04:06:57;98555.13;;;14.12;93.73
73016;BME280;61893;50.074;14.440;2022-10-16T04:09:25;98554.69;;;14.00;94.78
73016;BME280;61893;50.074;14.440;2022-10-16T04:11:58;98568.22;;;13.98;95.05
73016;BME280;61893;50.074;14.440;2022-10-16T04:14:56;98579.75;;;13.99;94.72
73016;BME280;61893;50.074;14.440;2022-10-16T04:17:23;98583.91;;;14.02;94.70
73016;BME280;61893;50.074;14.440;2022-10-16T04:19:48;98592.28;;;13.98;95.16
73016;BME280;61893;50.074;14.440;2022-10-16T04:22:21;98603.53;;;13.94;95.95
73016;BME280;61893;50.074;14.440;2022-10-16T04:24:49;98596.94;;;14.05;95.02
73016;BME280;61893;50.074;14.440;2022-10-16T04:27:18;98600.13;;;14.08;94.65
73016;BME280;61893;50.074;14.440;2022-10-16T04:29:43;98600.13;;;14.08;94.41
73016;BME280;61893;50.074;14.440;2022-10-16T04:32:09;98605.50;;;14.00;95.10
73016;BME280;61893;50.074;14.440;2022-10-16T04:34:36;98604.81;;;14.06;95.07
73016;BME280;61893;50.074;14.440;2022-10-16T04:37:03;98608.44;;;14.13;94.48
73016;BME280;61893;50.074;14.440;2022-10-16T04:39:33;98615.31;;;14.08;95.25
73016;BME280;61893;50.074;14.440;2022-10-16T04:42:01;98599.81;;;14.03;95.40
73016;BME280;61893;50.074;14.440;2022-10-16T04:44:26;98601.66;;;14.03;96.04
73016;BME280;61893;50.074;14.440;2022-10-16T04:46:52;98602.19;;;13.90;96.88
73016;BME280;61893;50.074;14.440;2022-10-16T04:49:18;98606.22;;;13.86;97.19
73016;BME280;61893;50.074;14.440;2022-10-16T04:51:44;98611.09;;;13.82;97.62
73016;BME280;61893;50.074;14.440;2022-10-16T04:54:10;98611.59;;;13.69;98.25
73016;BME280;61893;50.074;14.440;2022-10-16T04:56:35;98610.09;;;13.67;98.78
73016;BME280;61893;50.074;14.440;2022-10-16T04:59:09;98608.72;;;13.79;97.93
73016;BME280;61893;50.074;14.440;2022-10-16T05:01:35;98616.72;;;13.87;96.83
73016;BME280;61893;50.074;14.440;2022-10-16T05:04:00;98609.88;;;13.85;97.33
73016;BME280;61893;50.074;14.440;2022-10-16T05:06:42;98613.56;;;13.84;97.21
73016;BME280;61893;50.074;14.440;2022-10-16T05:09:08;98599.38;;;13.75;97.79
73016;BME280;61893;50.074;14.440;2022-10-16T05:11:34;98600.41;;;13.66;98.90
73016;BME280;61893;50.074;14.440;2022-10-16T05:14:00;98594.75;;;13.61;99.00
73016;BME280;61893;50.074;14.440;2022-10-16T05:16:27;98591.91;;;13.54;99.56
73016;BME280;61893;50.074;14.440;2022-10-16T05:18:53;98589.75;;;13.49;100.00
73016;BME280;61893;50.074;14.440;2022-10-16T05:21:20;98591.41;;;13.50;99.95
73016;BME280;61893;50.074;14.440;2022-10-16T05:23:46;98594.59;;;13.54;99.86
73016;BME280;61893;50.074;14.440;2022-10-16T05:26:12;98604.06;;;13.65;98.91
73016;BME280;61893;50.074;14.440;2022-10-16T05:28:38;98607.91;;;13.79;97.81
73016;BME280;61893;50.074;14.440;2022-10-16T05:31:08;98610.75;;;13.85;97.20
73016;BME280;61893;50.074;14.440;2022-10-16T05:33:34;98619.94;;;13.83;96.91
73016;BME280;61893;50.074;14.440;2022-10-16T05:36:04;98621.75;;;13.90;96.67
73016;BME280;61893;50.074;14.440;2022-10-16T05:38:31;98631.13;;;13.86;96.96
73016;BME280;61893;50.074;14.440;2022-10-16T05:41:00;98635.66;;;13.78;97.25
73016;BME280;61893;50.074;14.440;2022-10-16T05:43:27;98639.84;;;13.80;97.15
73016;BME280;61893;50.074;14.440;2022-10-16T05:46:01;98649.69;;;13.80;97.27
73016;BME280;61893;50.074;14.440;2022-10-16T05:48:29;98644.69;;;13.77;97.40
73016;BME280;61893;50.074;14.440;2022-10-16T05:50:57;98638.19;;;13.71;97.28
73016;BME280;61893;50.074;14.440;2022-10-16T05:53:30;98637.16;;;13.72;97.13
73016;BME280;61893;50.074;14.440;2022-10-16T05:55:58;98634.81;;;13.77;97.16
73016;BME280;61893;50.074;14.440;2022-10-16T05:58:25;98637.16;;;13.80;97.06
73016;BME280;61893;50.074;14.440;2022-10-16T06:01:00;98634.28;;;13.82;96.76
73016;BME280;61893;50.074;14.440;2022-10-16T06:03:27;98634.16;;;13.75;96.68
73016;BME280;61893;50.074;14.440;2022-10-16T06:05:53;98639.84;;;13.80;96.19
73016;BME280;61893;50.074;14.440;2022-10-16T06:08:20;98644.84;;;13.83;96.37
73016;BME280;61893;50.074;14.440;2022-10-16T06:10:48;98648.13;;;13.93;95.52
73016;BME280;61893;50.074;14.440;2022-10-16T06:13:17;98654.38;;;13.86;96.01
73016;BME280;61893;50.074;14.440;2022-10-16T06:15:43;98656.22;;;13.85;95.99
73016;BME280;61893;50.074;14.440;2022-10-16T06:18:10;98658.34;;;13.90;95.88
73016;BME280;61893;50.074;14.440;2022-10-16T06:20:36;98659.00;;;14.08;94.19
73016;BME280;61893;50.074;14.440;2022-10-16T06:23:03;98667.38;;;14.05;94.82
73016;BME280;61893;50.074;14.440;2022-10-16T06:25:32;98664.84;;;14.04;94.66
73016;BME280;61893;50.074;14.440;2022-10-16T06:28:16;98674.88;;;14.10;93.94
73016;BME280;61893;50.074;14.440;2022-10-16T06:30:43;98677.72;;;14.08;93.92
73016;BME280;61893;50.074;14.440;2022-10-16T06:33:12;98682.06;;;14.09;93.95
73016;BME280;61893;50.074;14.440;2022-10-16T06:35:38;98689.59;;;14.14;93.90
73016;BME280;61893;50.074;14.440;2022-10-16T06:38:07;98695.09;;;14.12;94.01
73016;BME280;61893;50.074;14.440;2022-10-16T06:41:16;98701.25;;;14.21;93.65
73016;BME280;61893;50.074;14.440;2022-10-16T06:43:47;98705.63;;;14.14;93.68
73016;BME280;61893;50.074;14.440;2022-10-16T06:46:28;98705.09;;;14.27;92.99
73016;BME280;61893;50.074;14.440;2022-10-16T06:49:12;98712.63;;;14.31;93.17
73016;BME280;61893;50.074;14.440;2022-10-16T06:51:38;98715.28;;;14.31;92.54
73016;BME280;61893;50.074;14.440;2022-10-16T06:54:17;98708.19;;;14.47;91.75
73016;BME280;61893;50.074;14.440;2022-10-16T06:56:43;98713.94;;;14.35;92.11
73016;BME280;61893;50.074;14.440;2022-10-16T06:59:12;98718.25;;;14.36;92.42
73016;BME280;61893;50.074;14.440;2022-10-16T07:01:44;98722.94;;;14.51;91.48
73016;BME280;61893;50.074;14.440;2022-10-16T07:04:14;98723.78;;;14.59;90.86
73016;BME280;61893;50.074;14.440;2022-10-16T07:06:47;98724.94;;;14.57;90.86
73016;BME280;61893;50.074;14.440;2022-10-16T07:09:35;98722.06;;;14.58;90.79
73016;BME280;61893;50.074;14.440;2022-10-16T07:12:10;98737.16;;;14.59;90.79
73016;BME280;61893;50.074;14.440;2022-10-16T07:14:36;98733.44;;;14.69;89.86
73016;BME280;61893;50.074;14.440;2022-10-16T07:17:02;98742.28;;;14.69;89.66
73016;BME280;61893;50.074;14.440;2022-10-16T07:19:31;98742.78;;;14.73;89.60
73016;BME280;61893;50.074;14.440;2022-10-16T07:21:57;98739.22;;;14.89;88.97
73016;BME280;61893;50.074;14.440;2022-10-16T07:24:27;98741.38;;;14.85;88.73
73016;BME280;61893;50.074;14.440;2022-10-16T07:26:58;98753.09;;;14.84;89.03
73016;BME280;61893;50.074;14.440;2022-10-16T07:29:30;98752.75;;;14.87;88.91
73016;BME280;61893;50.074;14.440;2022-10-16T07:31:56;98753.78;;;14.86;88.96
73016;BME280;61893;50.074;14.440;2022-10-16T07:34:22;98758.59;;;14.91;88.58
73016;BME280;61893;50.074;14.440;2022-10-16T07:36:50;98755.41;;;14.95;88.49
73016;BME280;61893;50.074;14.440;2022-10-16T07:39:20;98748.81;;;15.06;87.99
73016;BME280;61893;50.074;14.440;2022-10-16T07:42:01;98763.56;;;15.02;88.15
73016;BME280;61893;50.074;14.440;2022-10-16T07:45:01;98769.81;;;14.94;88.56
73016;BME280;61893;50.074;14.440;2022-10-16T07:47:42;98762.56;;;15.03;88.11
73016;BME280;61893;50.074;14.440;2022-10-16T07:50:32;98770.22;;;15.14;87.57
73016;BME280;61893;50.074;14.440;2022-10-16T07:52:58;98765.50;;;15.16;87.70
73016;BME280;61893;50.074;14.440;2022-10-16T07:55:33;98769.13;;;15.31;86.74
73016;BME280;61893;50.074;14.440;2022-10-16T07:58:19;98767.19;;;15.17;87.11
73016;BME280;61893;50.074;14.440;2022-10-16T08:00:45;98768.53;;;15.13;88.27
73016;BME280;61893;50.074;14.440;2022-10-16T08:03:17;98773.16;;;15.27;86.79
73016;BME280;61893;50.074;14.440;2022-10-16T08:05:43;98773.00;;;15.29;86.87
73016;BME280;61893;50.074;14.440;2022-10-16T08:08:13;98770.41;;;15.36;86.57
73016;BME280;61893;50.074;14.440;2022-10-16T08:10:39;98769.44;;;15.37;86.12
73016;BME280;61893;50.074;14.440;2022-10-16T08:13:04;98774.97;;;15.35;86.49
73016;BME280;61893;50.074;14.440;2022-10-16T08:15:30;98782.84;;;15.37;86.36
73016;BME280;61893;50.074;14.440;2022-10-16T08:18:00;98768.38;;;15.46;85.64
73016;BME280;61893;50.074;14.440;2022-10-16T08:20:28;98772.28;;;15.58;85.07
73016;BME280;61893;50.074;14.440;2022-10-16T08:22:58;98771.81;;;15.54;85.52
73016;BME280;61893;50.074;14.440;2022-10-16T08:25:25;98773.91;;;15.67;85.05
73016;BME280;61893;50.074;14.440;2022-10-16T08:28:07;98776.78;;;15.66;85.24
73016;BME280;61893;50.074;14.440;2022-10-16T08:30:49;98773.34;;;15.80;84.94
73016;BME280;61893;50.074;14.440;2022-10-16T08:33:15;98773.34;;;15.80;84.69
73016;BME280;61893;50.074;14.440;2022-10-16T08:35:52;98791.34;;;15.94;84.08
73016;BME280;61893;50.074;14.440;2022-10-16T08:38:19;98780.69;;;16.01;83.56
73016;BME280;61893;50.074;14.440;2022-10-16T08:40:47;98781.38;;;16.03;83.30
73016;BME280;61893;50.074;14.440;2022-10-16T08:44:35;98799.84;;;15.98;83.92
73016;BME280;61893;50.074;14.440;2022-10-16T08:47:13;98805.13;;;15.91;83.92
73016;BME280;61893;50.074;14.440;2022-10-16T08:49:58;98816.06;;;16.05;83.68
73016;BME280;61893;50.074;14.440;2022-10-16T08:52:31;98816.81;;;16.13;83.22
73016;BME280;61893;50.074;14.440;2022-10-16T08:56:05;98809.72;;;16.20;82.13
73016;BME280;61893;50.074;14.440;2022-10-16T08:58:31;98818.44;;;16.23;82.56
73016;BME280;61893;50.074;14.440;2022-10-16T09:01:00;98818.25;;;16.24;83.04
73016;BME280;61893;50.074;14.440;2022-10-16T09:07:28;98813.13;;;16.52;80.89
73016;BME280;61893;50.074;14.440;2022-10-16T09:10:24;98804.97;;;16.60;80.85
73016;BME280;61893;50.074;14.440;2022-10-16T09:13:29;98803.56;;;16.64;80.55
73016;BME280;61893;50.074;14.440;2022-10-16T09:16:44;98810.28;;;16.98;79.38
73016;BME280;61893;50.074;14.440;2022-10-16T09:19:35;98806.28;;;16.79;80.44
73016;BME280;61893;50.074;14.440;2022-10-16T09:22:14;98799.97;;;16.72;80.55
73016;BME280;61893;50.074;14.440;2022-10-16T09:25:14;98807.41;;;16.85;79.75
73016;BME280;61893;50.074;14.440;2022-10-16T09:27:56;98813.50;;;16.94;79.39
73016;BME280;61893;50.074;14.440;2022-10-16T09:30:42;98804.44;;;16.95;79.87
73016;BME280;61893;50.074;14.440;2022-10-16T09:33:42;98813.91;;;17.05;79.38
73016;BME280;61893;50.074;14.440;2022-10-16T09:37:20;98815.38;;;17.44;77.88
73016;BME280;61893;50.074;14.440;2022-10-16T09:40:38;98827.19;;;17.43;78.04
73016;BME280;61893;50.074;14.440;2022-10-16T09:46:25;98827.38;;;17.78;77.08
73016;BME280;61893;50.074;14.440;2022-10-16T09:48:56;98831.56;;;17.81;76.67
73016;BME280;61893;50.074;14.440;2022-10-16T09:51:34;98830.88;;;18.21;75.06
73016;BME280;61893;50.074;14.440;2022-10-16T09:56:38;98836.97;;;18.30;74.72
73016;BME280;61893;50.074;14.440;2022-10-16T09:59:34;98837.66;;;18.39;74.14
73016;BME280;61893;50.074;14.440;2022-10-16T10:02:08;98845.47;;;18.55;73.72
73016;BME280;61893;50.074;14.440;2022-10-16T10:05:37;98845.63;;;18.75;73.32
73016;BME280;61893;50.074;14.440;2022-10-16T10:08:20;98831.50;;;19.08;71.26
73016;BME280;61893;50.074;14.440;2022-10-16T10:11:55;98826.75;;;19.10;70.22
73016;BME280;61893;50.074;14.440;2022-10-16T10:15:02;98832.56;;;19.07;70.18
73016;BME280;61893;50.074;14.440;2022-10-16T10:18:19;98832.00;;;19.25;69.27
73016;BME280;61893;50.074;14.440;2022-10-16T10:21:03;98837.31;;;19.59;68.61
73016;BME280;61893;50.074;14.440;2022-10-16T10:23:43;98842.38;;;19.69;67.93
73016;BME280;61893;50.074;14.440;2022-10-16T10:27:34;98831.66;;;20.09;66.69
73016;BME280;61893;50.074;14.440;2022-10-16T10:56:07;98824.41;;;19.48;68.80
73016;BME280;61893;50.074;14.440;2022-10-16T11:04:18;98817.50;;;19.80;67.71
73016;BME280;61893;50.074;14.440;2022-10-16T11:06:51;98833.88;;;19.72;68.38
73016;BME280;61893;50.074;14.440;2022-10-16T11:09:22;98832.81;;;19.73;68.35
73016;BME280;61893;50.074;14.440;2022-10-16T11:17:39;98831.59;;;19.83;68.22
73016;BME280;61893;50.074;14.440;2022-10-16T11:20:23;98824.13;;;19.78;68.31
73016;BME280;61893;50.074;14.440;2022-10-16T11:22:55;98826.22;;;20.02;67.71
73016;BME280;61893;50.074;14.440;2022-10-16T11:25:29;98828.69;;;19.91;68.16
73016;BME280;61893;50.074;14.440;2022-10-16T11:28:18;98829.13;;;19.94;68.57
73016;BME280;61893;50.074;14.440;2022-10-16T11:30:59;98826.47;;;20.21;67.46
73016;BME280;61893;50.074;14.440;2022-10-16T11:33:47;98824.59;;;20.21;67.74
73016;BME280;61893;50.074;14.440;2022-10-16T11:37:38;98833.94;;;20.19;67.63
73016;BME280;61893;50.074;14.440;2022-10-16T11:39:41;98825.44;;;20.55;65.95
73016;BME280;61893;50.074;14.440;2022-10-16T11:42:41;98832.09;;;20.53;65.94
73016;BME280;61893;50.074;14.440;2022-10-16T11:45:33;98837.50;;;20.53;64.69
73016;BME280;61893;50.074;14.440;2022-10-16T11:48:33;98839.38;;;20.59;63.10
73016;BME280;61893;50.074;14.440;2022-10-16T11:51:39;98835.63;;;20.53;62.46
73016;BME280;61893;50.074;14.440;2022-10-16T11:54:35;98828.75;;;20.57;61.95
73016;BME280;61893;50.074;14.440;2022-10-16T11:57:27;98832.06;;;20.73;61.55
73016;BME280;61893;50.074;14.440;2022-10-16T12:00:29;98830.00;;;20.61;62.15
73016;BME280;61893;50.074;14.440;2022-10-16T12:03:26;98834.97;;;20.51;63.26
73016;BME280;61893;50.074;14.440;2022-10-16T12:08:54;98833.31;;;20.50;65.09
73016;BME280;61893;50.074;14.440;2022-10-16T12:11:36;98831.84;;;20.74;64.43
73016;BME280;61893;50.074;14.440;2022-10-16T12:14:33;98834.13;;;20.84;64.02
73016;BME280;61893;50.074;14.440;2022-10-16T12:17:39;98829.53;;;20.91;64.39
73016;BME280;61893;50.074;14.440;2022-10-16T12:20:54;98830.38;;;20.72;65.09
73016;BME280;61893;50.074;14.440;2022-10-16T12:23:51;98824.56;;;20.95;63.99
73016;BME280;61893;50.074;14.440;2022-10-16T12:26:39;98823.28;;;21.04;63.46
73016;BME280;61893;50.074;14.440;2022-10-16T12:29:44;98821.72;;;21.28;62.83
73016;BME280;61893;50.074;14.440;2022-10-16T12:32:36;98816.50;;;21.40;62.65
73016;BME280;61893;50.074;14.440;2022-10-16T12:35:43;98818.78;;;21.81;60.72
73016;BME280;61893;50.074;14.440;2022-10-16T12:38:48;98821.28;;;22.08;60.51
73016;BME280;61893;50.074;14.440;2022-10-16T12:41:35;98823.22;;;23.01;57.51
73016;BME280;61893;50.074;14.440;2022-10-16T12:44:27;98820.59;;;23.79;55.13
73016;BME280;61893;50.074;14.440;2022-10-16T12:46:57;98818.88;;;24.50;52.90
73016;BME280;61893;50.074;14.440;2022-10-16T12:49:32;98811.31;;;24.64;51.59
73016;BME280;61893;50.074;14.440;2022-10-16T12:52:01;98814.56;;;23.59;53.98
73016;BME280;61893;50.074;14.440;2022-10-16T12:54:36;98818.53;;;23.08;56.21
73016;BME280;61893;50.074;14.440;2022-10-16T13:00:04;98819.38;;;22.65;57.96
73016;BME280;61893;50.074;14.440;2022-10-16T13:05:38;98819.28;;;22.53;57.65
73016;BME280;61893;50.074;14.440;2022-10-16T13:19:21;98840.91;;;22.35;57.03
73016;BME280;61893;50.074;14.440;2022-10-16T13:22:03;98846.44;;;21.83;59.33
73016;BME280;61893;50.074;14.440;2022-10-16T13:30:32;98848.69;;;21.54;61.77
73016;BME280;61893;50.074;14.440;2022-10-16T13:35:56;98856.22;;;21.46;60.21
73016;BME280;61893;50.074;14.440;2022-10-16T13:38:25;98852.66;;;21.58;59.68
73016;BME280;61893;50.074;14.440;2022-10-16T13:41:14;98856.47;;;21.44;60.46
73016;BME280;61893;50.074;14.440;2022-10-16T13:43:49;98856.47;;;21.44;59.52
73016;BME280;61893;50.074;14.440;2022-10-16T13:46:23;98863.34;;;21.33;60.53
73016;BME280;61893;50.074;14.440;2022-10-16T13:49:04;98867.94;;;21.20;61.11
73016;BME280;61893;50.074;14.440;2022-10-16T13:51:35;98867.53;;;21.23;60.90
73016;BME280;61893;50.074;14.440;2022-10-16T13:54:01;98864.88;;;21.09;60.82
73016;BME280;61893;50.074;14.440;2022-10-16T13:56:29;98860.13;;;20.98;62.04
73016;BME280;61893;50.074;14.440;2022-10-16T13:59:20;98866.56;;;20.90;62.46
73016;BME280;61893;50.074;14.440;2022-10-16T14:01:57;98868.88;;;20.87;61.28
73016;BME280;61893;50.074;14.440;2022-10-16T14:04:27;98869.91;;;20.86;61.52
73016;BME280;61893;50.074;14.440;2022-10-16T14:07:01;98874.94;;;20.69;62.71
73016;BME280;61893;50.074;14.440;2022-10-16T14:09:29;98877.41;;;20.70;62.63
73016;BME280;61893;50.074;14.440;2022-10-16T14:12:03;98874.06;;;20.68;62.80
73016;BME280;61893;50.074;14.440;2022-10-16T14:17:29;98870.56;;;20.55;63.35
73016;BME280;61893;50.074;14.440;2022-10-16T14:20:05;98870.78;;;20.53;63.45
73016;BME280;61893;50.074;14.440;2022-10-16T14:44:11;98865.72;;;20.10;66.43
73016;BME280;61893;50.074;14.440;2022-10-16T14:46:44;98864.91;;;20.16;66.40
73016;BME280;61893;50.074;14.440;2022-10-16T14:49:34;98865.53;;;20.38;65.49
73016;BME280;61893;50.074;14.440;2022-10-16T14:52:26;98867.41;;;20.31;65.73
73016;BME280;61893;50.074;14.440;2022-10-16T14:58:20;98866.38;;;20.52;66.04
73016;BME280;61893;50.074;14.440;2022-10-16T15:02:00;98860.56;;;20.68;65.82
73016;BME280;61893;50.074;14.440;2022-10-16T15:05:28;98872.13;;;21.74;61.93
73016;BME280;61893;50.074;14.440;2022-10-16T15:08:24;98874.97;;;22.56;58.75
73016;BME280;61893;50.074;14.440;2022-10-16T15:11:56;98866.94;;;23.11;57.04
73016;BME280;61893;50.074;14.440;2022-10-16T15:15:46;98872.53;;;22.47;59.52
73016;BME280;61893;50.074;14.440;2022-10-16T15:19:14;98873.47;;;22.60;58.87
73016;BME280;61893;50.074;14.440;2022-10-16T15:22:14;98872.13;;;21.80;61.38
73016;BME280;61893;50.074;14.440;2022-10-16T15:25:24;98880.63;;;21.39;63.65
73016;BME280;61893;50.074;14.440;2022-10-16T15:28:35;98886.75;;;21.01;65.09
73016;BME280;61893;50.074;14.440;2022-10-16T15:31:51;98881.75;;;20.91;65.54
73016;BME280;61893;50.074;14.440;2022-10-16T15:34:41;98890.09;;;20.77;65.74
73016;BME280;61893;50.074;14.440;2022-10-16T15:38:21;98892.81;;;20.57;66.92
73016;BME280;61893;50.074;14.440;2022-10-16T15:41:21;98890.94;;;20.64;66.28
73016;BME280;61893;50.074;14.440;2022-10-16T15:44:25;98891.94;;;20.43;66.80